Aérodrome :
LOGIN :

S'inscrire | Disclaimer

   EN    FR    IT 

 










Légende :    VFR   VFR Marginal   IFR   IFR Intensif   IFR Très Intensif
Visi : 
Plafond : 
>= 8 km
>= 3000ft
5 à 8 km
1000 à 3000 ft
1500m à 5 km
500 à 1000 ft
800 à 1500m
200 à 500 ft
< 800m
< 200 ft
Symboles :   Orages  Brouillard  Fortes neiges  Fortes précipitations  Vent > 20 kt
SIGMETs :   Divers  Orages  Givrage  Turbulence  Onde Orograph.  Cendres Volcan.







- Altitude de l'aérodrome : 1276 ft
- Code IATA : STR


EDDS - Stuttgart

DERNIER METAR :
  • 221720Z 09011KT CAVOK 21/01 Q1003 NOSIG

METARs EXPIRÉS :
  • 221650Z 09011KT CAVOK 22/01 Q1003 NOSIG
  • 221620Z 09014KT CAVOK 22/01 Q1003 TEMPO 09015G25KT
  • 221550Z 08012KT 050V120 CAVOK 23/02 Q1004 TEMPO 09015G25KT
  • 221520Z 08014KT CAVOK 23/01 Q1004 TEMPO 09015G25KT
  • 221450Z 10013KT 070V130 CAVOK 23/03 Q1004 TEMPO 09015G25KT

TAF TAF EDDS
Valide du 22 à 18h jusqu'au 23 à 18h UTC


221700Z 2218/2318 07010KT CAVOK
BECMG 2219/2222 07005KT
Pas de NOTAMs connus pour ce terrain.



MET'MAP, la Météo Aéronautique d'un coup d'oeil ! - Copyright ORBIFLY Décembre 2007 - Disclaimer

ORBIFLY MET'MAP TEAM :

Programmation & Développement : Alexandra Zaïnal
Conception & Développement : Baudouin d'Aumeries
Co-Programmation & Développement : Marc-Olivier Méhu
Soutien technique & logistique : Manuel Goepfert

Contact : metmap@orbifly.com




SOURCES & CREDITS :

   NOAA